Time;durP1;ratioP1;P1;durP2;ratioP2;P2;SDS_P1;SDS_P2;PMS_P1;PMS_P2;Temp;Humidity;BMP_temperature;BMP_pressure;BME280_temperature;BME280_humidity;BME280_pressure;Samples;Min_cycle;Max_cycle;Signal;HPM_P1;HPM_P2
2023/01/07 00:01:31;;;;;;;16.40;9.13;;;9.70;99.90;;;;;;4998056;28;20037;-69
2023/01/07 00:03:59;;;;;;;21.77;10.85;;;9.70;99.90;;;;;;5002701;28;20136;-69
2023/01/07 00:06:27;;;;;;;18.90;10.00;;;9.70;99.90;;;;;;4982794;28;20053;-69
2023/01/07 00:08:54;;;;;;;19.73;9.65;;;9.70;99.90;;;;;;5002035;28;20034;-69
2023/01/07 00:11:27;;;;;;;18.58;9.27;;;9.80;99.90;;;;;;5017498;28;20042;-69
2023/01/07 00:13:54;;;;;;;19.98;10.38;;;9.80;99.90;;;;;;5005990;28;20041;-70
2023/01/07 00:16:24;;;;;;;17.77;9.43;;;9.80;99.90;;;;;;5014485;28;20503;-69
2023/01/07 00:18:51;;;;;;;19.48;9.90;;;9.80;99.90;;;;;;4999122;28;20044;-69
2023/01/07 00:21:18;;;;;;;18.48;9.32;;;9.80;99.90;;;;;;5020620;28;20056;-69
2023/01/07 00:23:45;;;;;;;16.70;9.35;;;9.80;99.90;;;;;;5003925;28;20048;-69
2023/01/07 00:26:21;;;;;;;16.88;9.15;;;9.90;99.90;;;;;;5011139;28;20316;-69
2023/01/07 00:28:49;;;;;;;15.10;8.15;;;9.90;99.90;;;;;;4999265;28;20037;-69
2023/01/07 00:31:17;;;;;;;16.10;8.30;;;9.90;99.90;;;;;;4985737;28;20111;-69
2023/01/07 00:36:22;;;;;;;14.88;7.53;;;10.00;99.90;;;;;;5016949;28;20487;-69
2023/01/07 00:38:54;;;;;;;13.88;7.60;;;10.00;99.90;;;;;;4998785;28;20605;-69
2023/01/07 00:41:21;;;;;;;14.48;7.95;;;10.00;99.90;;;;;;5005530;28;20072;-69
2023/01/07 00:43:46;;;;;;;16.17;7.45;;;10.00;99.90;;;;;;5000127;28;20038;-69
2023/01/07 00:46:14;;;;;;;12.60;7.13;;;10.00;99.90;;;;;;5007201;28;20072;-69
2023/01/07 00:48:40;;;;;;;13.70;7.18;;;10.10;99.90;;;;;;4993139;28;20067;-69
2023/01/07 00:51:08;;;;;;;14.02;7.93;;;10.10;99.90;;;;;;5004187;28;20049;-68
2023/01/07 00:53:34;;;;;;;14.05;7.47;;;10.10;99.90;;;;;;5019179;28;20076;-69
2023/01/07 00:55:59;;;;;;;13.10;7.70;;;10.20;99.90;;;;;;4997280;28;20049;-69
2023/01/07 00:58:25;;;;;;;13.67;7.10;;;10.20;99.90;;;;;;4984971;28;20048;-69
2023/01/07 01:00:59;;;;;;;12.20;7.27;;;10.20;99.90;;;;;;5000817;28;20053;-68
2023/01/07 01:03:27;;;;;;;12.52;7.10;;;10.20;99.90;;;;;;4985839;28;20056;-69
2023/01/07 01:05:53;;;;;;;11.88;6.28;;;10.20;99.90;;;;;;5017853;28;20051;-69
2023/01/07 01:08:20;;;;;;;;;;;10.30;99.90;;;;;;4996878;28;20052;-69
2023/01/07 01:10:46;;;;;;;11.93;6.57;;;10.30;99.90;;;;;;4995392;28;20034;-68
2023/01/07 01:13:13;;;;;;;;;;;10.30;99.90;;;;;;5008299;28;20048;-69
2023/01/07 01:15:46;;;;;;;10.95;6.50;;;10.30;99.90;;;;;;4994385;28;20437;-69
2023/01/07 01:18:13;;;;;;;12.70;6.43;;;10.30;99.90;;;;;;5002695;28;20049;-69
2023/01/07 01:20:38;;;;;;;11.88;6.82;;;10.30;99.90;;;;;;5005443;28;20526;-69
2023/01/07 01:23:05;;;;;;;11.70;6.45;;;10.40;99.90;;;;;;5018946;28;20057;-69
2023/01/07 01:25:31;;;;;;;12.23;6.97;;;10.40;99.90;;;;;;5019661;28;20439;-69
2023/01/07 01:27:56;;;;;;;12.82;7.60;;;10.40;99.90;;;;;;4998797;28;20060;-69
2023/01/07 01:30:22;;;;;;;12.37;7.37;;;10.40;99.90;;;;;;4999524;28;20099;-69
2023/01/07 01:32:50;;;;;;;11.30;6.82;;;10.40;99.90;;;;;;4987976;28;20055;-69
2023/01/07 01:35:16;;;;;;;14.70;7.32;;;10.50;99.90;;;;;;4999011;28;20488;-72
2023/01/07 01:37:42;;;;;;;13.00;7.83;;;10.50;99.90;;;;;;5021063;28;20116;-69
2023/01/07 01:40:09;;;;;;;10.98;6.70;;;10.50;99.90;;;;;;4994319;28;20502;-70
2023/01/07 01:42:35;;;;;;;12.75;8.00;;;10.50;99.90;;;;;;5021534;28;20493;-70
2023/01/07 01:45:02;;;;;;;11.40;7.20;;;10.50;99.90;;;;;;4990549;28;20136;-69
2023/01/07 01:47:48;;;;;;;11.75;7.30;;;10.50;99.90;;;;;;4987596;28;20054;-71
2023/01/07 01:50:33;;;;;;;10.80;6.95;;;10.50;99.90;;;;;;5017027;28;20081;-70
2023/01/07 01:53:14;;;;;;;12.90;6.95;;;10.50;99.90;;;;;;5001458;28;20401;-71
2023/01/07 01:55:50;;;;;;;9.50;6.80;;;10.60;99.90;;;;;;5019539;28;20480;-70
2023/01/07 01:58:20;;;;;;;12.32;7.50;;;10.60;99.90;;;;;;5015146;28;20038;-71
2023/01/07 02:00:47;;;;;;;10.57;6.55;;;10.60;99.90;;;;;;4999619;28;20136;-70
2023/01/07 02:03:17;;;;;;;12.07;6.63;;;10.60;99.90;;;;;;5002063;28;20140;-70
2023/01/07 02:05:44;;;;;;;9.80;6.43;;;10.60;99.90;;;;;;5022005;28;20056;-71
2023/01/07 02:08:10;;;;;;;11.25;7.28;;;10.60;99.90;;;;;;5000976;28;20079;-71
2023/01/07 02:10:37;;;;;;;11.70;7.10;;;10.60;99.90;;;;;;5022594;28;20393;-70
2023/01/07 02:13:11;;;;;;;11.43;7.30;;;10.60;99.90;;;;;;5007638;28;20052;-70
2023/01/07 02:15:46;;;;;;;12.10;7.25;;;10.60;99.90;;;;;;5017389;28;20046;-70
2023/01/07 02:18:23;;;;;;;13.88;7.47;;;10.60;99.90;;;;;;4983174;28;20042;-70
2023/01/07 02:21:16;;;;;;;12.27;7.35;;;10.60;99.90;;;;;;5007024;28;20251;-70
2023/01/07 02:23:45;;;;;;;11.48;7.20;;;10.70;99.90;;;;;;5021299;28;20592;-70
2023/01/07 02:26:38;;;;;;;14.52;8.30;;;10.60;99.90;;;;;;5007515;28;20042;-70
2023/01/07 02:29:25;;;;;;;11.88;7.57;;;10.70;99.90;;;;;;5017259;28;20050;-70
2023/01/07 02:32:05;;;;;;;12.47;7.70;;;10.70;99.90;;;;;;5007139;28;20414;-71
2023/01/07 02:34:50;;;;;;;11.80;7.18;;;10.70;99.90;;;;;;5006355;28;20295;-71
2023/01/07 02:37:23;;;;;;;14.50;8.35;;;10.70;99.90;;;;;;5003875;28;20096;-70
2023/01/07 02:40:15;;;;;;;12.57;7.25;;;10.70;99.90;;;;;;5005934;28;20049;-70
2023/01/07 02:42:50;;;;;;;13.38;7.95;;;10.70;99.90;;;;;;5018985;28;20317;-70
2023/01/07 02:45:26;;;;;;;13.85;7.30;;;10.70;99.90;;;;;;5019402;28;20136;-71
2023/01/07 02:47:58;;;;;;;12.73;8.10;;;10.70;99.90;;;;;;5006056;28;20037;-70
2023/01/07 02:50:24;;;;;;;12.07;7.75;;;10.60;99.90;;;;;;5008050;28;20080;-70
2023/01/07 02:52:50;;;;;;;11.93;6.97;;;10.70;99.90;;;;;;5007184;28;20033;-70
2023/01/07 02:55:29;;;;;;;12.77;7.33;;;10.60;99.90;;;;;;5024784;28;20047;-69
2023/01/07 02:58:07;;;;;;;13.25;8.10;;;10.60;99.90;;;;;;5000018;28;20046;-70
2023/01/07 03:00:51;;;;;;;12.18;7.97;;;10.70;99.90;;;;;;4998046;28;20068;-70
2023/01/07 03:03:25;;;;;;;12.98;8.07;;;10.70;99.90;;;;;;5017154;28;20124;-70
2023/01/07 03:06:10;;;;;;;12.57;7.93;;;10.70;99.90;;;;;;5023661;28;20083;-70
2023/01/07 03:09:06;;;;;;;14.65;8.00;;;10.60;99.90;;;;;;4984247;28;20053;-70
2023/01/07 03:11:46;;;;;;;18.55;8.75;;;10.70;99.90;;;;;;5015039;28;20085;-70
2023/01/07 03:14:44;;;;;;;15.13;8.63;;;10.70;99.90;;;;;;5021663;28;20045;-70
2023/01/07 03:17:16;;;;;;;14.23;8.90;;;10.60;99.90;;;;;;5026402;28;20045;-70
2023/01/07 03:19:48;;;;;;;12.90;8.38;;;10.70;99.90;;;;;;4986257;28;20476;-70
2023/01/07 03:22:17;;;;;;;14.90;8.35;;;10.60;99.90;;;;;;5025054;28;20053;-70
2023/01/07 03:24:45;;;;;;;15.82;8.55;;;10.60;99.90;;;;;;5006019;28;20081;-70
2023/01/07 03:27:12;;;;;;;17.58;9.70;;;10.60;99.90;;;;;;5004185;28;20064;-71
2023/01/07 03:29:37;;;;;;;;;;;10.60;99.90;;;;;;4998474;28;20418;-70
2023/01/07 03:32:24;;;;;;;15.52;8.88;;;10.60;99.90;;;;;;5004822;28;19974;-70
2023/01/07 03:34:50;;;;;;;16.25;9.38;;;10.60;99.90;;;;;;5025839;28;20038;-71
2023/01/07 03:37:19;;;;;;;15.98;9.48;;;10.60;99.90;;;;;;5006662;28;20147;-70
2023/01/07 03:39:46;;;;;;;13.20;8.82;;;10.60;99.90;;;;;;5020640;28;20065;-70
2023/01/07 03:44:59;;;;;;;13.38;8.77;;;10.60;99.90;;;;;;5003969;28;20400;-70
2023/01/07 03:47:26;;;;;;;;;;;10.50;99.90;;;;;;5004502;28;20552;-70
2023/01/07 03:49:52;;;;;;;16.00;9.38;;;10.60;99.90;;;;;;5008856;28;19947;-70
2023/01/07 03:52:17;;;;;;;15.20;9.03;;;10.60;99.90;;;;;;4987692;28;20079;-70
2023/01/07 03:54:43;;;;;;;16.43;9.23;;;10.60;99.90;;;;;;5021176;28;20466;-70
2023/01/07 03:57:09;;;;;;;14.80;9.47;;;10.60;99.90;;;;;;5001552;28;20099;-70
2023/01/07 03:59:35;;;;;;;13.00;8.50;;;10.50;99.90;;;;;;5019600;28;20322;-71
2023/01/07 04:02:00;;;;;;;14.30;8.50;;;10.50;99.90;;;;;;5014525;28;20046;-70
2023/01/07 04:04:26;;;;;;;13.30;8.50;;;10.50;99.90;;;;;;4987931;28;20060;-69
2023/01/07 04:06:54;;;;;;;13.97;7.87;;;10.50;99.90;;;;;;5006991;28;20397;-70
2023/01/07 04:09:20;;;;;;;15.02;7.95;;;10.50;99.90;;;;;;5018776;28;20045;-70
2023/01/07 04:11:46;;;;;;;;;;;10.40;99.90;;;;;;5002292;28;20092;-70
2023/01/07 04:14:12;;;;;;;13.35;8.45;;;10.40;99.90;;;;;;5008639;28;19924;-71
2023/01/07 04:16:38;;;;;;;14.02;8.55;;;10.40;99.90;;;;;;5024182;28;20042;-71
2023/01/07 04:19:04;;;;;;;17.55;8.43;;;10.40;99.90;;;;;;5019097;28;20697;-71
2023/01/07 04:21:29;;;;;;;17.67;9.70;;;10.40;99.90;;;;;;5010103;28;20041;-70
2023/01/07 04:23:55;;;;;;;14.37;9.03;;;10.40;99.90;;;;;;5011385;28;20291;-70
2023/01/07 04:26:21;;;;;;;13.83;8.57;;;10.40;99.90;;;;;;5024389;28;20033;-71
2023/01/07 04:28:47;;;;;;;16.38;8.38;;;10.40;99.90;;;;;;5005350;28;20042;-71
2023/01/07 04:31:12;;;;;;;13.52;8.48;;;10.40;99.90;;;;;;5006630;28;20112;-70
2023/01/07 04:33:40;;;;;;;13.50;8.23;;;10.40;99.90;;;;;;5005050;28;20491;-70
2023/01/07 04:36:10;;;;;;;16.57;9.03;;;10.40;99.90;;;;;;5007427;28;20072;-70
2023/01/07 04:38:36;;;;;;;13.05;7.95;;;10.40;99.90;;;;;;5025115;28;20099;-69
2023/01/07 04:41:01;;;;;;;16.50;8.63;;;10.30;99.90;;;;;;5021819;28;20049;-71
2023/01/07 04:43:27;;;;;;;13.30;7.93;;;10.30;99.90;;;;;;4997463;28;20111;-70
2023/01/07 04:45:52;;;;;;;17.30;8.93;;;10.30;99.90;;;;;;5006574;28;20037;-71
2023/01/07 04:48:18;;;;;;;16.57;8.37;;;10.30;99.90;;;;;;5009878;28;20049;-71
2023/01/07 04:50:46;;;;;;;14.53;8.53;;;10.30;99.90;;;;;;5008782;28;20052;-71
2023/01/07 04:53:11;;;;;;;15.40;8.40;;;10.40;99.90;;;;;;5024342;28;20038;-71
2023/01/07 04:55:37;;;;;;;15.33;8.23;;;10.30;99.90;;;;;;5026807;28;20037;-71
2023/01/07 04:58:03;;;;;;;15.40;9.07;;;10.30;99.90;;;;;;5024398;28;20069;-71
2023/01/07 05:00:28;;;;;;;18.03;8.53;;;10.30;99.90;;;;;;4990549;28;20084;-70
2023/01/07 05:02:54;;;;;;;14.70;9.40;;;10.30;99.90;;;;;;5025564;28;20041;-70
2023/01/07 05:05:20;;;;;;;14.00;8.03;;;10.30;99.90;;;;;;5022473;28;20041;-70
2023/01/07 05:07:46;;;;;;;16.17;8.90;;;10.30;99.90;;;;;;5025243;28;20107;-70
2023/01/07 05:10:12;;;;;;;15.33;8.67;;;10.30;99.90;;;;;;5007868;28;20085;-70
2023/01/07 05:12:37;;;;;;;17.10;9.03;;;10.30;99.90;;;;;;5008321;28;20128;-70
2023/01/07 05:15:04;;;;;;;13.10;8.20;;;10.40;99.90;;;;;;5007173;28;20057;-71
2023/01/07 05:17:30;;;;;;;12.02;7.30;;;10.40;99.90;;;;;;5023985;28;20283;-70
2023/01/07 05:19:56;;;;;;;16.20;8.50;;;10.40;99.90;;;;;;5005897;28;20076;-70
2023/01/07 05:22:22;;;;;;;12.63;8.43;;;10.40;99.90;;;;;;4992088;28;20052;-70
2023/01/07 05:24:48;;;;;;;15.80;8.68;;;10.40;99.90;;;;;;5006028;28;20124;-70
2023/01/07 05:27:14;;;;;;;16.03;7.53;;;10.40;99.90;;;;;;5001176;28;20816;-71
2023/01/07 05:29:39;;;;;;;13.60;7.97;;;10.40;99.90;;;;;;4998870;28;20041;-70
2023/01/07 05:32:05;;;;;;;15.90;8.53;;;10.40;99.90;;;;;;5010829;28;20037;-70
2023/01/07 05:34:31;;;;;;;17.50;7.47;;;10.30;99.90;;;;;;5008658;28;20073;-70
2023/01/07 05:36:59;;;;;;;16.30;7.70;;;10.30;99.90;;;;;;5016671;28;20041;-70
2023/01/07 05:39:25;;;;;;;15.00;7.25;;;10.30;99.90;;;;;;4994564;28;20050;-70
2023/01/07 05:41:50;;;;;;;12.00;7.72;;;10.30;99.90;;;;;;5003424;28;20463;-70
2023/01/07 05:44:16;;;;;;;11.77;7.17;;;10.30;99.90;;;;;;5028325;28;20442;-70
2023/01/07 05:46:42;;;;;;;14.00;8.00;;;10.30;99.90;;;;;;5030678;22;20136;-68
2023/01/07 05:49:07;;;;;;;12.37;7.60;;;10.20;99.90;;;;;;5044451;28;20357;-68
2023/01/07 05:51:33;;;;;;;15.63;8.60;;;10.30;99.90;;;;;;5027429;28;20053;-68
2023/01/07 05:53:59;;;;;;;15.50;7.28;;;10.20;99.90;;;;;;5012568;28;20462;-69
2023/01/07 05:56:25;;;;;;;12.43;7.07;;;10.20;99.90;;;;;;5030931;28;20048;-69
2023/01/07 05:58:50;;;;;;;13.60;6.67;;;10.20;99.90;;;;;;5039331;28;20033;-69
2023/01/07 06:01:16;;;;;;;11.33;7.47;;;10.20;99.90;;;;;;5045802;28;20067;-68
2023/01/07 06:03:42;;;;;;;11.43;6.70;;;10.20;99.90;;;;;;5037830;28;20080;-68
2023/01/07 06:06:07;;;;;;;16.23;7.47;;;10.20;99.90;;;;;;5032405;28;20049;-68
2023/01/07 06:08:34;;;;;;;13.73;5.77;;;10.10;99.90;;;;;;5029617;28;20037;-69
2023/01/07 06:11:03;;;;;;;13.30;6.47;;;10.10;99.90;;;;;;5033430;28;20044;-68
2023/01/07 06:13:29;;;;;;;15.73;7.18;;;10.10;99.90;;;;;;5027209;28;20044;-68
2023/01/07 06:16:06;;;;;;;12.05;7.20;;;10.10;99.90;;;;;;5047555;28;21468;-68
2023/01/07 06:18:35;;;;;;;;;;;10.10;99.90;;;;;;5030025;28;20092;-68
2023/01/07 06:21:01;;;;;;;9.63;5.85;;;10.10;99.90;;;;;;5027659;28;19973;-69
2023/01/07 06:23:27;;;;;;;14.88;7.25;;;10.10;99.90;;;;;;5048720;28;20037;-69
2023/01/07 06:25:52;;;;;;;10.57;6.33;;;10.10;99.90;;;;;;5047839;28;20044;-68
2023/01/07 06:28:18;;;;;;;11.10;5.80;;;10.00;99.90;;;;;;5035335;28;20070;-68
2023/01/07 06:30:45;;;;;;;9.87;5.53;;;10.00;99.90;;;;;;5021312;28;20127;-68
2023/01/07 06:33:11;;;;;;;10.20;6.13;;;10.00;99.90;;;;;;5013693;28;20037;-68
2023/01/07 06:35:39;;;;;;;8.75;6.10;;;10.00;99.90;;;;;;5044568;28;20052;-69
2023/01/07 06:38:05;;;;;;;9.43;5.88;;;9.90;99.90;;;;;;5046855;28;20497;-68
2023/01/07 06:40:30;;;;;;;12.50;5.87;;;10.00;99.90;;;;;;5044243;28;20160;-68
2023/01/07 06:42:56;;;;;;;12.27;6.63;;;10.00;99.90;;;;;;5047958;28;20036;-68
2023/01/07 06:45:22;;;;;;;11.80;6.60;;;10.00;99.90;;;;;;5031337;28;20049;-69
2023/01/07 06:47:47;;;;;;;12.50;6.37;;;10.00;99.90;;;;;;5044742;28;20044;-69
2023/01/07 06:50:14;;;;;;;12.80;6.30;;;10.00;99.90;;;;;;5047151;28;20544;-68
2023/01/07 06:52:40;;;;;;;12.25;6.10;;;10.00;99.90;;;;;;5042555;28;20045;-68
2023/01/07 06:55:06;;;;;;;8.33;5.60;;;10.00;99.90;;;;;;5046586;28;20490;-69
2023/01/07 06:57:31;;;;;;;10.05;5.57;;;10.00;99.90;;;;;;5047113;28;20531;-68
2023/01/07 06:59:57;;;;;;;12.97;6.23;;;10.00;99.90;;;;;;5037571;28;20052;-68
2023/01/07 07:02:25;;;;;;;11.53;5.60;;;10.00;99.90;;;;;;5047402;28;20080;-69
2023/01/07 07:04:51;;;;;;;10.15;5.60;;;10.00;99.90;;;;;;5036755;28;20036;-68
2023/01/07 07:07:17;;;;;;;11.25;5.63;;;10.00;99.90;;;;;;5026199;28;20037;-69
2023/01/07 07:09:43;;;;;;;12.50;6.20;;;10.00;99.90;;;;;;5045337;28;20045;-68
2023/01/07 07:12:09;;;;;;;9.77;6.03;;;10.00;99.90;;;;;;5043740;28;20114;-68
2023/01/07 07:14:40;;;;;;;12.93;5.65;;;10.00;99.90;;;;;;5044612;28;20457;-68
2023/01/07 07:17:06;;;;;;;9.40;5.72;;;10.00;99.90;;;;;;5022414;28;20501;-69
2023/01/07 07:19:32;;;;;;;10.40;5.47;;;10.00;99.90;;;;;;5043741;28;20123;-68
2023/01/07 07:21:57;;;;;;;7.73;4.97;;;10.00;99.90;;;;;;5023993;28;20045;-69
2023/01/07 07:24:23;;;;;;;8.57;5.20;;;10.00;99.90;;;;;;5044557;28;20093;-68
2023/01/07 07:26:49;;;;;;;7.57;4.83;;;10.10;99.90;;;;;;5045113;28;20041;-69
2023/01/07 07:29:14;;;;;;;7.97;5.10;;;10.00;99.90;;;;;;5028518;28;20053;-69
2023/01/07 07:31:40;;;;;;;12.63;4.53;;;10.00;99.90;;;;;;5043864;28;20047;-68
2023/01/07 07:34:06;;;;;;;10.40;5.13;;;10.00;99.90;;;;;;5044255;28;20449;-68
2023/01/07 07:36:31;;;;;;;8.57;4.83;;;10.00;99.90;;;;;;5026913;28;20487;-68
2023/01/07 07:38:57;;;;;;;8.88;4.82;;;10.00;99.90;;;;;;5043294;28;20082;-68
2023/01/07 07:41:23;;;;;;;13.83;5.43;;;10.00;99.90;;;;;;5021452;28;20045;-69
2023/01/07 07:43:48;;;;;;;10.13;5.53;;;10.00;99.90;;;;;;5031607;28;20123;-69
2023/01/07 07:46:14;;;;;;;8.17;5.23;;;10.00;99.90;;;;;;5039575;28;20102;-68
2023/01/07 07:48:40;;;;;;;7.20;4.78;;;10.00;99.90;;;;;;5045840;28;20094;-68
2023/01/07 07:51:05;;;;;;;8.60;4.63;;;10.00;99.90;;;;;;5042726;28;20048;-68
2023/01/07 07:53:31;;;;;;;8.67;4.30;;;10.00;99.90;;;;;;5044621;28;20506;-69
2023/01/07 07:55:57;;;;;;;8.10;4.13;;;9.90;99.90;;;;;;5041705;28;20116;-68
2023/01/07 07:58:22;;;;;;;8.50;4.80;;;10.00;99.90;;;;;;5043174;28;20651;-69
2023/01/07 08:00:48;;;;;;;7.97;4.83;;;9.90;99.90;;;;;;5017540;28;20477;-68
2023/01/07 08:03:14;;;;;;;6.70;4.23;;;9.90;99.90;;;;;;5025519;28;20234;-68
2023/01/07 08:05:41;;;;;;;6.63;4.17;;;9.80;99.90;;;;;;5027886;28;20056;-69
2023/01/07 08:08:08;;;;;;;7.22;3.75;;;9.80;99.90;;;;;;5045517;28;20201;-68
2023/01/07 08:10:34;;;;;;;6.03;3.70;;;9.80;99.90;;;;;;5026295;28;20049;-68
2023/01/07 08:13:00;;;;;;;6.63;3.90;;;9.80;99.90;;;;;;5021181;28;20052;-68
2023/01/07 08:15:26;;;;;;;6.10;4.03;;;9.80;99.90;;;;;;5028925;28;20045;-69
2023/01/07 08:18:00;;;;;;;5.95;3.72;;;9.80;99.90;;;;;;5045249;28;20658;-69
2023/01/07 08:20:28;;;;;;;9.32;3.97;;;9.80;99.90;;;;;;5044101;28;20549;-68
2023/01/07 08:22:54;;;;;;;7.50;3.95;;;9.70;99.90;;;;;;5021197;28;20040;-68
2023/01/07 08:25:19;;;;;;;10.07;4.40;;;9.60;99.90;;;;;;5045162;28;20102;-68
2023/01/07 08:27:45;;;;;;;7.20;3.83;;;9.70;99.90;;;;;;5044584;28;20040;-68
2023/01/07 08:30:11;;;;;;;12.07;3.77;;;9.70;99.90;;;;;;5029367;28;20767;-68
2023/01/07 08:32:36;;;;;;;6.03;3.30;;;9.70;99.90;;;;;;5026942;28;20119;-68
2023/01/07 08:35:06;;;;;;;5.20;3.30;;;9.70;99.90;;;;;;5040862;28;20487;-68
2023/01/07 08:37:31;;;;;;;6.25;3.33;;;9.70;99.90;;;;;;5027269;28;20395;-68
2023/01/07 08:39:57;;;;;;;7.07;3.27;;;9.70;99.90;;;;;;5017376;28;20055;-68
2023/01/07 08:42:22;;;;;;;5.33;3.40;;;9.70;99.90;;;;;;5039012;28;20063;-69
2023/01/07 08:44:50;;;;;;;4.97;3.08;;;9.70;99.90;;;;;;5026757;28;20033;-69
2023/01/07 08:47:16;;;;;;;5.70;2.93;;;9.70;99.90;;;;;;5043956;28;20051;-69
2023/01/07 08:49:42;;;;;;;4.30;2.70;;;9.70;99.90;;;;;;5028915;28;20052;-68
2023/01/07 08:52:07;;;;;;;5.43;2.80;;;9.70;99.90;;;;;;5029578;28;20225;-68
2023/01/07 08:54:33;;;;;;;6.23;2.90;;;9.70;99.90;;;;;;5044517;28;20140;-68
2023/01/07 08:57:01;;;;;;;6.83;2.77;;;9.70;99.90;;;;;;5043590;28;20106;-68
2023/01/07 08:59:27;;;;;;;7.18;2.50;;;9.70;99.90;;;;;;5033227;28;20440;-68
2023/01/07 09:01:52;;;;;;;4.57;2.80;;;9.70;99.90;;;;;;5027489;28;20124;-68
2023/01/07 09:04:18;;;;;;;4.97;2.97;;;9.70;99.90;;;;;;5029002;28;20048;-69
2023/01/07 09:06:43;;;;;;;4.10;2.23;;;9.70;99.90;;;;;;5043345;28;20120;-69
2023/01/07 09:09:10;;;;;;;5.00;2.57;;;9.70;99.90;;;;;;5045519;28;20106;-68
2023/01/07 09:11:36;;;;;;;4.18;2.08;;;9.70;99.90;;;;;;5043256;28;20041;-68
2023/01/07 09:14:02;;;;;;;6.20;2.05;;;9.70;99.90;;;;;;5024636;28;20045;-68
2023/01/07 09:16:28;;;;;;;5.23;2.10;;;9.80;99.90;;;;;;5042645;28;20053;-69
2023/01/07 09:18:53;;;;;;;5.63;2.10;;;9.80;99.90;;;;;;5022030;28;20098;-68
2023/01/07 09:21:19;;;;;;;2.70;1.73;;;9.70;99.90;;;;;;5046069;28;20687;-69
2023/01/07 09:23:44;;;;;;;3.80;2.07;;;9.80;99.90;;;;;;5035635;28;20049;-69
2023/01/07 09:26:10;;;;;;;3.03;1.70;;;9.80;99.90;;;;;;5048317;28;20116;-69
2023/01/07 09:28:35;;;;;;;3.90;1.80;;;9.80;99.90;;;;;;5045590;28;20033;-68
2023/01/07 09:31:05;;;;;;;4.57;2.10;;;9.80;99.90;;;;;;5028323;28;20517;-68
2023/01/07 09:33:32;;;;;;;4.68;2.22;;;9.80;99.90;;;;;;5032833;28;20041;-68
2023/01/07 09:35:57;;;;;;;3.33;2.30;;;9.80;99.90;;;;;;5048146;28;20482;-68
2023/01/07 09:38:23;;;;;;;3.07;1.93;;;9.80;99.90;;;;;;5048825;28;20037;-68
2023/01/07 09:40:49;;;;;;;7.07;2.17;;;9.80;99.90;;;;;;5048102;28;20040;-68
2023/01/07 09:43:27;;;;;;;;;;;9.80;99.90;;;;;;5032430;28;20128;-68
2023/01/07 09:45:59;;;;;;;3.45;1.95;;;9.80;99.90;;;;;;5047482;28;19927;-68
2023/01/07 09:48:28;;;;;;;3.65;2.33;;;9.80;99.90;;;;;;5029014;28;20109;-69
2023/01/07 09:51:25;;;;;;;4.25;1.73;;;9.90;99.90;;;;;;5029449;28;20140;-68
2023/01/07 09:54:00;;;;;;;3.28;1.70;;;9.80;99.90;;;;;;5025781;28;20033;-68
2023/01/07 09:56:28;;;;;;;4.25;1.52;;;9.90;99.90;;;;;;5039166;28;20041;-68
2023/01/07 09:58:55;;;;;;;2.95;1.92;;;9.80;99.90;;;;;;5029400;28;20036;-68
2023/01/07 10:01:33;;;;;;;3.25;1.70;;;9.80;99.90;;;;;;5047079;28;20529;-68
2023/01/07 10:04:21;;;;;;;2.85;1.67;;;9.90;99.90;;;;;;5045672;28;20193;-68
2023/01/07 10:06:56;;;;;;;3.40;2.00;;;9.90;99.90;;;;;;5041879;28;20058;-68
2023/01/07 10:09:37;;;;;;;4.47;1.45;;;9.90;99.90;;;;;;5010283;28;20191;-68
2023/01/07 10:12:18;;;;;;;2.60;1.50;;;9.90;99.90;;;;;;5019020;28;20492;-68
2023/01/07 10:15:08;;;;;;;2.30;1.35;;;10.00;99.90;;;;;;5036575;28;20067;-68
2023/01/07 10:17:53;;;;;;;3.45;1.58;;;10.00;99.90;;;;;;5031767;28;20037;-68
2023/01/07 10:20:30;;;;;;;3.83;1.70;;;9.90;99.90;;;;;;5017765;28;20088;-68
2023/01/07 10:23:03;;;;;;;3.50;1.70;;;9.90;99.90;;;;;;5027022;28;20523;-68
2023/01/07 10:25:39;;;;;;;3.22;1.55;;;9.80;99.90;;;;;;5049733;28;20582;-68
2023/01/07 10:28:16;;;;;;;1.88;1.20;;;9.90;99.90;;;;;;5013319;28;20060;-68
2023/01/07 10:30:46;;;;;;;3.33;1.45;;;9.90;99.90;;;;;;5043316;28;20049;-68
2023/01/07 10:33:25;;;;;;;4.40;1.70;;;10.00;99.90;;;;;;5031026;28;20045;-68
2023/01/07 10:36:03;;;;;;;2.47;1.35;;;10.00;99.90;;;;;;5040338;28;20037;-68
2023/01/07 10:38:33;;;;;;;2.65;1.65;;;10.00;99.90;;;;;;5041205;28;20041;-68
2023/01/07 10:41:16;;;;;;;2.42;1.40;;;10.00;99.90;;;;;;5041288;28;20087;-68
2023/01/07 10:43:47;;;;;;;3.67;1.52;;;10.00;99.90;;;;;;5041881;28;20105;-68
2023/01/07 10:47:01;;;;;;;3.85;1.67;;;10.20;99.90;;;;;;5030571;28;20347;-68
2023/01/07 10:49:38;;;;;;;2.33;1.30;;;10.10;99.90;;;;;;5042635;28;20048;-68
2023/01/07 10:52:39;;;;;;;3.50;1.10;;;10.20;99.90;;;;;;5044552;28;20044;-69
2023/01/07 10:55:33;;;;;;;3.58;1.45;;;10.20;99.90;;;;;;4980751;28;20520;-69
2023/01/07 10:57:59;;;;;;;2.40;1.17;;;10.30;99.90;;;;;;5028967;28;20043;-69
2023/01/07 11:00:25;;;;;;;2.33;1.30;;;10.30;99.90;;;;;;5044292;28;20041;-69
2023/01/07 11:02:58;;;;;;;2.90;1.23;;;10.40;99.90;;;;;;5033230;28;20053;-69
2023/01/07 11:05:37;;;;;;;3.35;1.00;;;10.40;99.90;;;;;;5022828;28;20509;-69
2023/01/07 11:08:09;;;;;;;2.13;0.90;;;10.50;99.90;;;;;;5038827;28;20136;-69
2023/01/07 11:10:37;;;;;;;2.28;0.90;;;10.50;99.90;;;;;;5025848;28;20131;-69
2023/01/07 11:13:14;;;;;;;1.88;1.10;;;10.60;99.90;;;;;;5021788;28;20045;-69
2023/01/07 11:15:51;;;;;;;3.92;1.42;;;10.70;99.90;;;;;;5041824;28;20053;-69
2023/01/07 11:18:21;;;;;;;1.70;1.00;;;10.80;99.90;;;;;;5027292;28;20409;-69
2023/01/07 11:20:58;;;;;;;2.25;0.90;;;10.90;99.90;;;;;;5039522;28;20286;-68
2023/01/07 11:23:26;;;;;;;;;;;10.90;99.90;;;;;;5041842;28;20080;-68
2023/01/07 11:25:53;;;;;;;1.67;0.95;;;11.00;99.90;;;;;;5024985;28;19963;-68
2023/01/07 11:28:25;;;;;;;1.77;0.85;;;11.10;99.90;;;;;;5023230;28;20053;-68
2023/01/07 11:31:00;;;;;;;2.22;1.05;;;11.10;99.90;;;;;;5039870;28;20037;-69
2023/01/07 11:33:34;;;;;;;4.93;1.23;;;11.00;99.90;;;;;;5026411;28;20041;-68
2023/01/07 11:36:00;;;;;;;1.52;0.70;;;11.00;99.90;;;;;;5021352;28;20124;-69
2023/01/07 11:38:32;;;;;;;1.42;0.50;;;11.00;99.90;;;;;;5040299;28;20175;-69
2023/01/07 11:40:59;;;;;;;4.68;0.68;;;11.00;99.90;;;;;;5017134;28;20064;-69
2023/01/07 11:43:32;;;;;;;1.70;1.00;;;11.00;99.90;;;;;;5039743;28;20482;-68
2023/01/07 11:48:31;;;;;;;2.30;0.90;;;10.90;99.90;;;;;;5021125;28;20053;-73
2023/01/07 11:51:00;;;;;;;1.13;0.85;;;10.90;99.90;;;;;;4996302;28;20607;-73
2023/01/07 11:53:34;;;;;;;2.28;0.90;;;10.80;99.90;;;;;;5012757;28;20498;-73
2023/01/07 11:56:10;;;;;;;1.75;0.80;;;10.90;99.90;;;;;;5016820;28;20103;-73
2023/01/07 11:58:44;;;;;;;1.90;1.10;;;10.90;99.90;;;;;;5019921;28;20551;-73
2023/01/07 12:01:15;;;;;;;1.75;0.98;;;10.90;99.90;;;;;;4980543;28;20042;-72
2023/01/07 12:03:43;;;;;;;2.30;1.00;;;10.90;99.90;;;;;;5003104;28;20136;-73
2023/01/07 12:06:15;;;;;;;2.65;1.00;;;10.90;99.90;;;;;;4998750;28;20495;-73
2023/01/07 12:08:49;;;;;;;1.25;0.70;;;10.90;99.90;;;;;;5004975;28;20164;-73
2023/01/07 12:11:16;;;;;;;5.05;2.25;;;10.90;99.90;;;;;;4994511;28;20467;-73
2023/01/07 12:13:48;;;;;;;3.35;1.10;;;10.90;99.90;;;;;;5001696;28;20069;-73
2023/01/07 12:16:14;;;;;;;1.58;0.70;;;11.00;99.90;;;;;;5021363;28;20049;-73
2023/01/07 12:18:48;;;;;;;2.28;0.80;;;11.00;99.90;;;;;;4985203;28;20356;-73
2023/01/07 12:21:32;;;;;;;1.67;0.70;;;11.00;99.90;;;;;;5015352;28;20049;-73
2023/01/07 12:24:01;;;;;;;2.20;0.93;;;11.00;99.90;;;;;;5006805;28;20111;-73
2023/01/07 12:26:50;;;;;;;1.25;0.68;;;11.10;99.90;;;;;;5003454;28;20051;-73
2023/01/07 12:29:47;;;;;;;1.95;0.95;;;11.10;99.90;;;;;;4995356;28;20337;-73
2023/01/07 12:32:25;;;;;;;2.03;0.80;;;11.20;99.90;;;;;;5002430;28;20513;-73
2023/01/07 12:34:59;;;;;;;1.10;0.77;;;11.20;99.90;;;;;;5021424;28;20487;-73
2023/01/07 12:37:29;;;;;;;1.88;0.90;;;11.30;99.90;;;;;;5019227;28;20098;-73
2023/01/07 12:40:20;;;;;;;3.00;1.00;;;11.30;99.90;;;;;;4993053;28;20126;-73
2023/01/07 12:43:02;;;;;;;1.77;1.00;;;11.30;99.90;;;;;;5002030;28;20057;-74
2023/01/07 12:45:44;;;;;;;1.50;0.82;;;11.30;99.90;;;;;;4996833;28;20064;-73
2023/01/07 12:48:42;;;;;;;3.55;0.90;;;11.30;99.90;;;;;;5014984;28;20049;-73
2023/01/07 12:51:20;;;;;;;2.28;1.20;;;11.40;99.90;;;;;;4979608;28;20106;-73
2023/01/07 12:53:58;;;;;;;3.15;1.05;;;11.40;99.90;;;;;;5000958;28;20502;-73
2023/01/07 12:56:34;;;;;;;1.73;0.90;;;11.40;99.90;;;;;;4997283;28;20045;-72
2023/01/07 12:59:23;;;;;;;2.03;1.00;;;11.50;99.90;;;;;;4994751;28;20534;-73
2023/01/07 13:01:57;;;;;;;1.27;0.80;;;11.40;99.90;;;;;;5015610;28;20352;-73
2023/01/07 13:04:59;;;;;;;2.30;1.05;;;11.40;99.90;;;;;;5020786;28;20544;-73
2023/01/07 13:07:42;;;;;;;2.25;0.85;;;11.40;99.90;;;;;;5000428;28;20045;-73
2023/01/07 13:10:22;;;;;;;2.15;0.82;;;11.40;99.90;;;;;;5013545;28;20049;-73